Time;durP1;ratioP1;P1;durP2;ratioP2;P2;SDS_P1;SDS_P2;PMS_P1;PMS_P2;Temp;Humidity;BMP_temperature;BMP_pressure;BME280_temperature;BME280_humidity;BME280_pressure;Samples;Min_cycle;Max_cycle;Signal;HPM_P1;HPM_P2
2024/04/07 00:00:23;;;;;;;2.53;1.57;;;20.30;69.90;;;;;;5035030;28;20218;-72
2024/04/07 00:02:50;;;;;;;3.20;2.10;;;20.30;69.40;;;;;;5032908;28;20518;-73
2024/04/07 00:05:16;;;;;;;8.80;3.13;;;20.30;69.80;;;;;;5034768;28;20213;-71
2024/04/07 00:07:42;;;;;;;8.03;2.80;;;20.30;69.50;;;;;;5035224;28;20459;-73
2024/04/07 00:10:08;;;;;;;6.57;3.37;;;20.30;69.60;;;;;;5035026;28;20182;-71
2024/04/07 00:12:35;;;;;;;4.50;3.20;;;20.30;69.90;;;;;;5035551;28;20273;-73
2024/04/07 00:15:01;;;;;;;4.07;2.90;;;20.30;69.80;;;;;;5065776;28;20416;-70
2024/04/07 00:17:27;;;;;;;4.77;3.77;;;20.30;69.40;;;;;;5035055;28;20440;-69
2024/04/07 00:19:53;;;;;;;4.30;3.50;;;20.20;69.70;;;;;;5033885;28;20441;-73
2024/04/07 00:22:18;;;;;;;7.00;4.23;;;20.30;69.70;;;;;;5036529;28;20217;-71
2024/04/07 00:24:44;;;;;;;7.20;2.90;;;20.20;69.70;;;;;;5034291;28;20611;-72
2024/04/07 00:27:10;;;;;;;6.37;3.20;;;20.20;69.80;;;;;;5065382;28;20206;-72
2024/04/07 00:29:35;;;;;;;7.70;3.07;;;20.20;70.20;;;;;;5034854;28;20247;-73
2024/04/07 00:32:01;;;;;;;7.63;6.00;;;20.20;70.00;;;;;;5033600;28;20815;-70
2024/04/07 00:34:27;;;;;;;2.70;2.37;;;20.20;70.70;;;;;;5035489;28;20296;-73
2024/04/07 00:36:52;;;;;;;4.70;2.70;;;20.20;69.30;;;;;;5033754;28;20649;-70
2024/04/07 00:39:18;;;;;;;3.60;2.00;;;20.20;70.00;;;;;;5035244;28;20193;-71
2024/04/07 00:41:44;;;;;;;4.47;2.83;;;20.20;69.60;;;;;;5034528;28;20213;-71
2024/04/07 00:44:09;;;;;;;2.07;1.53;;;20.20;70.50;;;;;;5034509;28;20591;-71
2024/04/07 00:46:36;;;;;;;2.00;1.50;;;20.20;69.90;;;;;;5035066;28;20178;-69
2024/04/07 00:49:01;;;;;;;5.63;2.30;;;20.20;70.70;;;;;;5034157;28;20189;-72
2024/04/07 00:51:27;;;;;;;2.87;1.80;;;20.20;71.30;;;;;;5034788;28;20433;-72
2024/04/07 00:53:55;;;;;;;1.87;1.50;;;20.10;70.00;;;;;;5033157;28;20197;-73
2024/04/07 00:56:21;;;;;;;3.40;1.60;;;20.10;71.00;;;;;;5034824;28;20779;-69
2024/04/07 00:58:48;;;;;;;5.13;1.90;;;20.10;70.50;;;;;;5034164;28;20778;-71
2024/04/07 01:01:14;;;;;;;5.87;1.63;;;20.20;70.50;;;;;;5034905;28;20440;-72
2024/04/07 01:03:39;;;;;;;3.43;1.40;;;20.20;69.90;;;;;;5034435;28;21060;-72
2024/04/07 01:06:05;;;;;;;3.40;1.60;;;20.20;70.30;;;;;;5034900;28;20541;-71
2024/04/07 01:08:31;;;;;;;2.43;1.40;;;20.20;69.10;;;;;;5033794;28;20507;-69
2024/04/07 01:10:56;;;;;;;4.87;1.37;;;20.20;69.70;;;;;;5034468;28;20192;-70
2024/04/07 01:13:27;;;;;;;2.03;1.40;;;20.20;69.50;;;;;;5034694;28;20186;-70
2024/04/07 01:15:53;;;;;;;4.73;1.53;;;20.30;69.50;;;;;;5034395;28;20186;-68
2024/04/07 01:18:19;;;;;;;2.53;1.47;;;20.20;69.50;;;;;;5034949;28;21106;-71
2024/04/07 01:20:45;;;;;;;5.03;2.17;;;20.20;69.80;;;;;;5034035;28;20420;-71
2024/04/07 01:23:18;;;;;;;2.70;1.40;;;20.30;69.80;;;;;;5034566;28;20461;-72
2024/04/07 01:25:45;;;;;;;6.30;1.80;;;20.30;69.40;;;;;;5034704;28;20801;-69
2024/04/07 01:28:12;;;;;;;4.40;1.50;;;20.30;68.80;;;;;;5034151;28;20846;-72
2024/04/07 01:30:38;;;;;;;5.53;1.30;;;20.30;70.00;;;;;;5033628;28;20428;-68
2024/04/07 01:33:04;;;;;;;2.53;1.40;;;20.30;69.00;;;;;;5034746;28;20519;-69
2024/04/07 01:35:30;;;;;;;4.30;1.40;;;20.40;69.20;;;;;;5034507;28;20428;-71
2024/04/07 01:37:57;;;;;;;2.90;1.20;;;20.40;69.90;;;;;;5033902;28;22667;-72
2024/04/07 01:40:23;;;;;;;5.50;1.83;;;20.30;69.60;;;;;;5034165;28;20491;-73
2024/04/07 01:42:50;;;;;;;4.77;1.30;;;20.30;69.80;;;;;;5033473;28;20515;-71
2024/04/07 01:45:18;;;;;;;1.87;1.40;;;20.30;70.20;;;;;;5036955;28;20428;-72
2024/04/07 01:47:44;;;;;;;6.07;1.43;;;20.30;70.70;;;;;;5037610;28;21149;-71
2024/04/07 01:50:10;;;;;;;4.00;1.60;;;20.30;71.20;;;;;;5037471;28;20421;-70
2024/04/07 01:52:35;;;;;;;4.40;1.57;;;20.30;71.00;;;;;;5037466;28;20416;-70
2024/04/07 01:55:01;;;;;;;2.73;1.40;;;20.30;71.40;;;;;;5038818;28;20907;-73
2024/04/07 01:57:27;;;;;;;3.67;1.40;;;20.30;71.40;;;;;;5069952;28;20186;-70
2024/04/07 01:59:53;;;;;;;3.00;1.40;;;20.30;71.50;;;;;;5037242;28;20218;-69
2024/04/07 02:02:19;;;;;;;2.80;1.83;;;20.30;71.70;;;;;;5038067;28;20217;-73
2024/04/07 02:04:48;;;;;;;4.27;2.40;;;20.30;71.70;;;;;;5037218;28;20437;-71
2024/04/07 02:07:15;;;;;;;2.17;1.27;;;20.20;72.40;;;;;;5037932;28;20436;-69
2024/04/07 02:09:40;;;;;;;5.23;1.70;;;20.20;72.60;;;;;;5036754;28;20453;-70
2024/04/07 02:12:07;;;;;;;3.13;1.47;;;20.20;73.10;;;;;;5038357;28;20514;-70
2024/04/07 02:14:33;;;;;;;4.90;1.47;;;20.20;73.50;;;;;;5037314;28;20359;-72
2024/04/07 02:16:59;;;;;;;7.40;1.90;;;20.20;73.70;;;;;;5037751;28;20456;-70
2024/04/07 02:19:25;;;;;;;2.80;1.60;;;20.20;73.50;;;;;;5037215;28;20655;-73
2024/04/07 02:21:50;;;;;;;2.07;1.50;;;20.20;73.80;;;;;;5037237;28;20715;-70
2024/04/07 02:24:16;;;;;;;3.67;1.70;;;20.10;74.70;;;;;;5037610;28;20221;-73
2024/04/07 02:26:42;;;;;;;2.63;1.40;;;20.10;75.10;;;;;;5037176;28;20178;-71
2024/04/07 02:29:08;;;;;;;2.00;1.40;;;20.10;75.30;;;;;;5037243;28;20190;-73
2024/04/07 02:31:33;;;;;;;4.40;1.60;;;20.10;75.90;;;;;;5036822;28;20194;-71
2024/04/07 02:33:59;;;;;;;4.33;2.03;;;20.10;76.30;;;;;;5038110;28;21012;-72
2024/04/07 02:36:26;;;;;;;3.10;1.67;;;20.10;76.90;;;;;;5037126;28;20186;-73
2024/04/07 02:38:52;;;;;;;5.23;1.77;;;20.10;78.20;;;;;;5036487;28;20186;-73
2024/04/07 02:41:17;;;;;;;20.83;2.10;;;20.00;79.10;;;;;;5037478;28;20860;-70
2024/04/07 02:43:44;;;;;;;6.37;1.83;;;20.00;80.20;;;;;;5037388;28;20564;-70
2024/04/07 02:48:54;;;;;;;5.43;1.63;;;20.00;83.10;;;;;;5036351;28;21217;-70
2024/04/07 02:51:19;;;;;;;3.87;2.00;;;19.90;84.20;;;;;;5037121;28;20428;-73
2024/04/07 02:53:45;;;;;;;8.27;2.10;;;19.90;84.60;;;;;;5036408;28;20265;-68
2024/04/07 02:56:11;;;;;;;7.37;2.13;;;19.80;85.90;;;;;;5036030;28;20742;-74
2024/04/07 02:58:37;;;;;;;7.47;2.10;;;19.90;87.70;;;;;;5035640;28;20181;-68
2024/04/07 03:01:06;;;;;;;5.07;2.10;;;19.80;88.20;;;;;;5035441;28;20185;-73
2024/04/07 03:03:32;;;;;;;5.43;2.30;;;19.80;90.00;;;;;;5036686;28;20249;-72
2024/04/07 03:05:58;;;;;;;5.27;2.27;;;19.80;91.10;;;;;;5036494;28;20475;-73
2024/04/07 03:08:24;;;;;;;2.73;1.73;;;19.80;91.70;;;;;;5036538;28;20465;-72
2024/04/07 03:11:00;;;;;;;8.63;2.07;;;19.70;92.10;;;;;;5036178;28;20530;-70
2024/04/07 03:13:27;;;;;;;5.33;2.17;;;19.70;92.60;;;;;;5037027;28;20441;-71
2024/04/07 03:15:53;;;;;;;4.57;2.23;;;19.60;93.70;;;;;;5036117;28;21079;-69
2024/04/07 03:18:19;;;;;;;6.30;2.50;;;19.60;94.80;;;;;;5036641;28;20424;-72
2024/04/07 03:20:45;;;;;;;5.67;2.20;;;19.50;95.90;;;;;;5035948;28;20495;-72
2024/04/07 03:23:11;;;;;;;4.23;2.67;;;19.50;96.50;;;;;;5036675;28;20469;-71
2024/04/07 03:25:37;;;;;;;6.13;2.47;;;19.50;97.20;;;;;;5036037;28;20528;-69
2024/04/07 03:28:03;;;;;;;6.23;2.87;;;19.50;98.00;;;;;;5036578;28;20524;-71
2024/04/07 03:30:29;;;;;;;5.70;2.50;;;19.40;98.60;;;;;;5035427;28;20432;-71
2024/04/07 03:32:55;;;;;;;7.60;2.60;;;19.40;99.10;;;;;;5034622;28;20429;-73
2024/04/07 03:35:21;;;;;;;5.87;2.97;;;19.30;99.60;;;;;;5035842;28;20185;-72
2024/04/07 03:37:46;;;;;;;4.43;2.60;;;19.30;99.90;;;;;;5034123;28;20213;-71
2024/04/07 03:40:13;;;;;;;8.63;2.70;;;19.30;99.90;;;;;;5035701;28;20267;-69
2024/04/07 03:42:39;;;;;;;3.43;2.33;;;19.20;99.90;;;;;;5034146;28;20249;-73
2024/04/07 03:45:09;;;;;;;7.93;3.20;;;19.20;99.90;;;;;;5036081;28;20440;-69
2024/04/07 03:47:35;;;;;;;3.90;2.37;;;19.10;99.90;;;;;;5034649;28;20935;-71
2024/04/07 03:50:01;;;;;;;5.47;2.77;;;19.10;99.90;;;;;;5035487;28;20424;-73
2024/04/07 03:52:27;;;;;;;5.33;2.83;;;19.00;99.90;;;;;;5034663;28;20435;-68
2024/04/07 03:54:52;;;;;;;4.73;2.57;;;19.00;99.90;;;;;;5034739;28;20202;-70
2024/04/07 03:57:18;;;;;;;5.80;2.60;;;19.00;99.90;;;;;;5035253;28;20192;-69
2024/04/07 03:59:44;;;;;;;7.60;2.57;;;19.00;99.90;;;;;;5034162;28;20214;-68
2024/04/07 04:02:09;;;;;;;4.73;2.40;;;18.90;99.90;;;;;;5035075;28;20194;-70
2024/04/07 04:04:35;;;;;;;7.23;3.10;;;18.90;99.90;;;;;;5033495;28;20214;-70
2024/04/07 04:07:00;;;;;;;6.37;2.70;;;18.80;99.90;;;;;;5034622;28;20198;-72
2024/04/07 04:09:26;;;;;;;6.30;2.30;;;18.70;99.90;;;;;;5034526;28;20707;-71
2024/04/07 04:11:52;;;;;;;6.53;2.10;;;18.70;99.90;;;;;;5034595;28;20269;-73
2024/04/07 04:14:17;;;;;;;5.30;2.37;;;18.70;99.90;;;;;;5035095;28;20180;-70
2024/04/07 04:16:44;;;;;;;4.90;2.13;;;18.70;99.90;;;;;;5032759;28;20665;-68
2024/04/07 04:19:11;;;;;;;6.67;2.87;;;18.70;99.90;;;;;;5035109;28;20182;-69
2024/04/07 04:21:37;;;;;;;3.63;2.30;;;18.70;99.90;;;;;;5033477;28;20433;-71
2024/04/07 04:24:03;;;;;;;4.97;2.00;;;18.70;99.90;;;;;;5035420;28;20469;-72
2024/04/07 04:26:28;;;;;;;4.23;2.03;;;18.70;99.90;;;;;;5034319;28;20589;-71
2024/04/07 04:28:54;;;;;;;6.17;2.80;;;18.60;99.90;;;;;;5034534;28;20428;-69
2024/04/07 04:31:20;;;;;;;7.27;2.80;;;18.60;99.90;;;;;;5035258;28;20217;-72
2024/04/07 04:33:46;;;;;;;4.60;2.50;;;18.60;99.90;;;;;;5034239;28;21518;-71
2024/04/07 04:36:15;;;;;;;4.23;2.27;;;18.50;99.90;;;;;;5034887;28;20273;-69
2024/04/07 04:38:41;;;;;;;4.70;2.00;;;18.50;99.90;;;;;;5033767;28;20447;-71
2024/04/07 04:41:08;;;;;;;6.50;2.27;;;18.50;99.90;;;;;;5034491;28;20431;-73
2024/04/07 04:43:34;;;;;;;4.40;2.40;;;18.40;99.90;;;;;;5034198;28;20566;-70
2024/04/07 04:46:09;;;;;;;3.90;1.87;;;18.30;99.90;;;;;;5034654;28;20964;-72
2024/04/07 04:48:36;;;;;;;5.30;2.40;;;18.30;99.90;;;;;;5033779;28;20923;-70
2024/04/07 04:51:03;;;;;;;9.50;2.47;;;18.30;99.90;;;;;;5034422;28;20785;-69
2024/04/07 04:53:30;;;;;;;8.33;2.27;;;18.30;99.90;;;;;;5034190;28;20961;-70
2024/04/07 04:56:01;;;;;;;4.53;1.80;;;18.30;99.90;;;;;;5034523;28;20492;-71
2024/04/07 04:58:27;;;;;;;3.90;1.87;;;18.30;99.90;;;;;;5034066;28;20537;-72
2024/04/07 05:00:53;;;;;;;6.57;2.17;;;18.30;99.90;;;;;;5034428;28;20433;-71
2024/04/07 05:03:19;;;;;;;6.60;2.70;;;18.30;99.90;;;;;;5035313;28;20525;-74
2024/04/07 05:05:45;;;;;;;4.87;1.80;;;18.20;99.90;;;;;;5033422;28;20487;-71
2024/04/07 05:08:11;;;;;;;5.60;2.20;;;18.30;99.90;;;;;;5049322;28;20221;-71
2024/04/07 05:10:37;;;;;;;5.27;2.30;;;18.20;99.90;;;;;;5033430;28;20183;-74
2024/04/07 05:13:02;;;;;;;3.27;1.80;;;18.20;99.90;;;;;;5032946;28;20437;-71
2024/04/07 05:15:28;;;;;;;4.60;1.87;;;18.20;99.90;;;;;;5033497;28;20204;-72
2024/04/07 05:17:54;;;;;;;3.63;1.80;;;18.20;99.90;;;;;;5034956;28;20486;-69
2024/04/07 05:20:20;;;;;;;5.77;2.20;;;18.20;99.90;;;;;;5036022;28;20693;-72
2024/04/07 05:22:45;;;;;;;7.40;2.23;;;18.10;99.90;;;;;;5037667;28;20300;-72
2024/04/07 05:25:11;;;;;;;5.50;2.40;;;18.10;99.90;;;;;;5038767;28;20232;-69
2024/04/07 05:27:37;;;;;;;4.27;2.00;;;18.10;99.90;;;;;;5037235;28;20194;-73
2024/04/07 05:30:03;;;;;;;4.87;1.97;;;18.10;99.90;;;;;;5038692;28;20192;-73
2024/04/07 05:32:30;;;;;;;2.90;1.87;;;18.10;99.90;;;;;;5036343;28;20652;-70
2024/04/07 05:34:56;;;;;;;4.33;1.70;;;18.10;99.90;;;;;;5038374;28;20999;-71
2024/04/07 05:37:21;;;;;;;2.80;2.20;;;18.10;99.90;;;;;;5037993;28;20436;-72
2024/04/07 05:39:51;;;;;;;4.43;2.33;;;18.10;99.90;;;;;;5037369;28;20190;-72
2024/04/07 05:42:18;;;;;;;3.27;2.33;;;18.10;99.90;;;;;;5038389;28;20178;-71
2024/04/07 05:44:44;;;;;;;3.93;2.20;;;18.10;99.90;;;;;;5037731;28;20433;-72
2024/04/07 05:47:10;;;;;;;2.80;2.50;;;18.10;99.90;;;;;;5038358;28;20789;-74
2024/04/07 05:49:36;;;;;;;4.30;2.47;;;18.00;99.90;;;;;;5037166;28;20478;-71
2024/04/07 05:52:03;;;;;;;5.57;2.07;;;18.10;99.90;;;;;;5038759;28;20277;-73
2024/04/07 05:54:29;;;;;;;4.20;1.73;;;18.00;99.90;;;;;;5036999;28;20307;-70
2024/04/07 05:56:55;;;;;;;3.60;2.10;;;18.00;99.90;;;;;;5037047;28;20531;-72
2024/04/07 05:59:21;;;;;;;2.90;2.23;;;18.00;99.90;;;;;;5036651;28;20174;-72
2024/04/07 06:01:46;;;;;;;3.70;2.20;;;17.90;99.90;;;;;;5036021;28;20834;-71
2024/04/07 06:04:12;;;;;;;4.33;2.13;;;17.90;99.90;;;;;;5038192;28;20479;-72
2024/04/07 06:06:38;;;;;;;2.97;1.63;;;17.90;99.90;;;;;;5036431;28;20316;-71
2024/04/07 06:09:03;;;;;;;5.17;2.00;;;17.90;99.90;;;;;;5037964;28;20178;-71
2024/04/07 06:11:29;;;;;;;7.17;2.60;;;17.80;99.90;;;;;;5036380;28;20623;-73
2024/04/07 06:13:55;;;;;;;7.17;2.20;;;17.80;99.90;;;;;;5037858;28;20187;-69
2024/04/07 06:16:21;;;;;;;4.17;2.37;;;17.80;99.90;;;;;;5037603;28;20432;-72
2024/04/07 06:18:47;;;;;;;5.63;2.23;;;17.80;99.90;;;;;;5037297;28;20185;-71
2024/04/07 06:21:13;;;;;;;4.93;2.10;;;17.70;99.90;;;;;;5038355;28;20224;-71
2024/04/07 06:23:40;;;;;;;4.70;2.00;;;17.70;99.90;;;;;;5036868;28;20213;-71
2024/04/07 06:26:06;;;;;;;5.60;2.10;;;17.70;99.90;;;;;;5037511;28;20189;-71
2024/04/07 06:28:32;;;;;;;3.97;2.00;;;17.70;99.90;;;;;;5036596;28;20432;-70
2024/04/07 06:30:58;;;;;;;7.23;2.37;;;17.70;99.90;;;;;;5037943;28;20435;-71
2024/04/07 06:33:26;;;;;;;4.00;2.03;;;17.70;99.90;;;;;;5036905;28;20700;-70
2024/04/07 06:35:53;;;;;;;4.43;1.60;;;17.70;99.90;;;;;;5037615;28;20174;-69
2024/04/07 06:38:19;;;;;;;4.73;2.17;;;17.70;99.90;;;;;;5036994;28;21180;-73
2024/04/07 06:40:44;;;;;;;5.17;2.17;;;17.60;99.90;;;;;;5036878;28;20860;-70
2024/04/07 06:43:10;;;;;;;4.70;2.30;;;17.70;99.90;;;;;;5037388;28;20484;-71
2024/04/07 06:45:36;;;;;;;3.50;2.00;;;17.70;99.90;;;;;;5035884;28;20194;-69
2024/04/07 06:48:02;;;;;;;5.27;2.10;;;17.70;99.90;;;;;;5038156;28;20192;-70
2024/04/07 06:50:27;;;;;;;3.20;1.93;;;17.80;99.90;;;;;;5035981;28;20710;-73
2024/04/07 06:52:53;;;;;;;3.73;1.63;;;17.80;99.90;;;;;;5037606;28;20268;-74
2024/04/07 06:55:19;;;;;;;3.47;1.90;;;17.90;99.90;;;;;;5036588;28;20599;-72
2024/04/07 06:57:45;;;;;;;3.70;2.07;;;17.90;99.90;;;;;;5034299;28;20193;-70
2024/04/07 07:00:12;;;;;;;4.20;2.00;;;17.90;99.90;;;;;;5034394;28;20439;-73
2024/04/07 07:02:38;;;;;;;4.97;2.10;;;17.90;99.90;;;;;;5036013;28;20328;-72
2024/04/07 07:05:04;;;;;;;5.43;1.80;;;17.90;99.90;;;;;;5037682;28;20524;-71
2024/04/07 07:07:30;;;;;;;5.10;1.73;;;18.00;99.90;;;;;;5036206;28;20272;-73
2024/04/07 07:09:57;;;;;;;5.70;2.03;;;18.00;99.90;;;;;;5037059;28;20472;-72
2024/04/07 07:12:23;;;;;;;3.83;1.87;;;18.10;99.90;;;;;;5035837;28;20424;-73
2024/04/07 07:14:49;;;;;;;1.50;1.20;;;18.10;99.90;;;;;;5036715;28;20428;-73
2024/04/07 07:17:15;;;;;;;3.30;1.83;;;18.10;99.90;;;;;;5036565;28;20912;-72
2024/04/07 07:19:41;;;;;;;6.23;1.70;;;18.20;99.90;;;;;;5035975;28;20432;-71
2024/04/07 07:22:06;;;;;;;3.00;1.40;;;18.30;99.90;;;;;;5036924;28;20503;-71
2024/04/07 07:24:32;;;;;;;2.30;1.37;;;18.30;99.90;;;;;;5035257;28;20267;-72
2024/04/07 07:26:58;;;;;;;3.00;1.80;;;18.30;99.90;;;;;;5036667;28;20190;-70
2024/04/07 07:29:24;;;;;;;3.37;1.63;;;18.40;99.90;;;;;;5036045;28;20292;-72
2024/04/07 07:31:50;;;;;;;3.07;1.30;;;18.40;99.90;;;;;;5036219;28;20428;-71
2024/04/07 07:34:15;;;;;;;4.10;1.20;;;18.30;99.90;;;;;;5036832;28;20216;-71
2024/04/07 07:36:41;;;;;;;4.23;1.80;;;18.40;99.90;;;;;;5030083;28;20448;-72
2024/04/07 07:39:07;;;;;;;4.77;2.03;;;18.40;99.90;;;;;;5034057;28;20190;-70
2024/04/07 07:41:33;;;;;;;1.57;1.23;;;18.40;99.90;;;;;;5031630;28;20321;-69
2024/04/07 07:43:58;;;;;;;5.90;1.70;;;18.40;99.90;;;;;;5035285;28;20229;-68
2024/04/07 07:46:24;;;;;;;1.80;1.10;;;18.40;99.90;;;;;;5034835;28;20190;-70
2024/04/07 07:48:50;;;;;;;2.70;1.27;;;18.40;99.90;;;;;;5036887;28;20193;-71
2024/04/07 07:51:17;;;;;;;2.67;1.73;;;18.40;99.90;;;;;;5065943;28;20197;-68
2024/04/07 07:53:43;;;;;;;3.30;1.83;;;18.40;99.90;;;;;;5033647;28;20177;-69
2024/04/07 07:56:09;;;;;;;2.70;1.50;;;18.40;99.90;;;;;;5036146;28;20762;-69
2024/04/07 07:58:36;;;;;;;4.47;1.27;;;18.40;99.90;;;;;;5034791;28;21173;-70
2024/04/07 08:01:02;;;;;;;7.00;2.00;;;18.40;99.90;;;;;;5040779;28;21294;-69
2024/04/07 08:03:28;;;;;;;4.73;1.37;;;18.40;99.90;;;;;;5035266;28;20473;-69
2024/04/07 08:05:54;;;;;;;2.03;1.30;;;18.40;99.90;;;;;;5034779;28;20451;-69
2024/04/07 08:08:20;;;;;;;2.57;1.40;;;18.40;99.90;;;;;;5035947;28;20181;-69
2024/04/07 08:10:46;;;;;;;1.70;1.20;;;18.40;99.90;;;;;;5033548;28;20182;-69
2024/04/07 08:13:13;;;;;;;3.00;1.33;;;18.40;99.90;;;;;;5035476;28;20447;-68
2024/04/07 08:15:41;;;;;;;1.67;1.13;;;18.50;99.90;;;;;;5034457;28;20486;-69
2024/04/07 08:18:07;;;;;;;4.03;1.27;;;18.50;99.90;;;;;;5035310;28;20441;-71
2024/04/07 08:20:34;;;;;;;7.63;1.20;;;18.50;99.90;;;;;;5034596;28;20440;-68
2024/04/07 08:23:00;;;;;;;4.67;1.57;;;18.50;99.90;;;;;;5036457;28;21264;-69
2024/04/07 08:25:26;;;;;;;3.10;1.30;;;18.50;99.90;;;;;;5034987;28;20894;-71
2024/04/07 08:27:52;;;;;;;3.83;1.90;;;18.60;99.90;;;;;;5036386;28;20258;-70
2024/04/07 08:30:18;;;;;;;6.10;1.60;;;18.60;99.90;;;;;;5034808;28;20459;-70
2024/04/07 08:32:44;;;;;;;4.20;1.67;;;18.60;99.90;;;;;;5035360;28;20922;-70
2024/04/07 08:35:10;;;;;;;2.43;1.53;;;18.70;99.90;;;;;;5035762;28;20793;-69
2024/04/07 08:37:40;;;;;;;4.00;1.67;;;18.70;99.90;;;;;;5033365;28;20190;-68
2024/04/07 08:40:07;;;;;;;3.07;1.40;;;18.90;99.90;;;;;;5035480;28;20441;-71
2024/04/07 08:42:33;;;;;;;5.50;1.27;;;18.90;99.90;;;;;;5034008;28;21129;-67
2024/04/07 08:45:01;;;;;;;3.20;1.30;;;19.00;99.90;;;;;;5035571;28;20518;-67
2024/04/07 08:47:28;;;;;;;1.97;0.90;;;19.10;99.90;;;;;;5033094;28;20963;-68
2024/04/07 08:49:55;;;;;;;1.93;1.13;;;19.20;99.90;;;;;;5035996;28;20470;-67
2024/04/07 08:52:22;;;;;;;1.80;1.00;;;19.30;99.90;;;;;;5035774;28;20424;-68
2024/04/07 08:54:48;;;;;;;5.03;1.33;;;19.40;99.90;;;;;;5037169;28;20436;-69
2024/04/07 08:57:14;;;;;;;4.33;1.30;;;19.50;99.90;;;;;;5035961;28;20531;-68
2024/04/07 08:59:41;;;;;;;2.90;1.30;;;19.60;99.90;;;;;;5039274;28;20552;-69
2024/04/07 09:02:08;;;;;;;2.10;1.90;;;19.70;99.90;;;;;;5039567;28;20475;-68
2024/04/07 09:04:34;;;;;;;4.27;1.10;;;19.80;99.90;;;;;;5038522;28;20860;-69
2024/04/07 09:07:03;;;;;;;2.70;1.23;;;19.80;99.90;;;;;;5040448;28;20428;-70
2024/04/07 09:09:32;;;;;;;2.00;1.07;;;19.80;99.90;;;;;;5040004;28;20523;-69
2024/04/07 09:12:02;;;;;;;3.53;1.20;;;19.90;99.90;;;;;;5069784;28;20432;-71
2024/04/07 09:14:29;;;;;;;3.43;1.30;;;19.90;99.90;;;;;;5039083;28;20429;-70
2024/04/07 09:17:05;;;;;;;1.90;1.10;;;19.90;99.50;;;;;;5038760;28;20456;-68
2024/04/07 09:19:32;;;;;;;5.37;1.43;;;20.00;99.20;;;;;;5039780;28;20423;-71
2024/04/07 09:21:58;;;;;;;2.17;1.13;;;20.00;99.30;;;;;;5040330;28;21199;-72
2024/04/07 09:24:25;;;;;;;5.17;1.40;;;20.20;99.10;;;;;;5039890;28;20614;-68
2024/04/07 09:26:56;;;;;;;4.60;1.63;;;20.30;99.60;;;;;;5038196;28;20636;-68
2024/04/07 09:29:22;;;;;;;1.80;1.10;;;20.40;99.10;;;;;;5038631;28;20900;-68
2024/04/07 09:31:47;;;;;;;3.40;1.07;;;20.50;98.40;;;;;;5039404;28;20962;-71
2024/04/07 09:34:13;;;;;;;3.90;1.20;;;20.60;98.30;;;;;;5039952;28;20429;-70
2024/04/07 09:36:39;;;;;;;2.00;0.80;;;20.50;95.30;;;;;;5039186;28;20182;-67
2024/04/07 09:39:05;;;;;;;2.17;0.70;;;20.50;95.60;;;;;;5039356;28;20435;-68
2024/04/07 09:41:32;;;;;;;1.47;0.93;;;20.60;96.20;;;;;;5040596;28;20424;-67
2024/04/07 09:44:03;;;;;;;3.03;1.00;;;20.60;94.70;;;;;;5039363;28;20251;-68
2024/04/07 09:46:34;;;;;;;3.33;0.87;;;20.60;95.10;;;;;;5036293;28;20425;-70
2024/04/07 09:49:02;;;;;;;1.83;0.80;;;20.70;94.70;;;;;;5040292;28;20451;-68
2024/04/07 09:51:30;;;;;;;1.97;0.87;;;20.70;93.90;;;;;;5037971;28;20497;-69
2024/04/07 09:54:01;;;;;;;1.70;0.90;;;20.60;94.10;;;;;;5037092;28;20480;-69
2024/04/07 09:56:35;;;;;;;2.80;1.17;;;20.60;94.20;;;;;;5040586;28;20436;-68
2024/04/07 09:59:01;;;;;;;2.00;0.90;;;20.60;94.40;;;;;;5041774;28;20490;-70
2024/04/07 10:01:27;;;;;;;5.30;1.10;;;20.60;95.50;;;;;;5039414;28;20425;-70
2024/04/07 10:03:53;;;;;;;3.00;1.03;;;20.50;94.80;;;;;;5037751;28;20463;-68
2024/04/07 10:06:20;;;;;;;1.50;0.90;;;20.40;94.80;;;;;;5036807;28;20221;-69
2024/04/07 10:08:47;;;;;;;2.33;0.80;;;20.40;94.70;;;;;;5038425;28;20466;-67
2024/04/07 10:11:20;;;;;;;3.60;1.03;;;20.40;94.80;;;;;;5038999;28;20808;-68
2024/04/07 10:13:46;;;;;;;3.50;1.00;;;20.40;95.30;;;;;;5037525;28;20431;-71
2024/04/07 10:16:16;;;;;;;2.80;1.27;;;20.40;95.70;;;;;;5038170;28;21072;-68
2024/04/07 10:18:43;;;;;;;1.87;1.00;;;20.30;95.30;;;;;;5052917;28;20907;-67
2024/04/07 10:21:09;;;;;;;2.07;1.03;;;20.30;95.70;;;;;;5036930;28;20436;-69
2024/04/07 10:23:39;;;;;;;9.73;1.10;;;20.20;95.10;;;;;;5038438;28;20533;-71
2024/04/07 10:26:06;;;;;;;1.53;0.93;;;20.20;95.70;;;;;;5036897;28;20901;-69
2024/04/07 10:28:47;;;;;;;4.60;1.37;;;20.20;95.60;;;;;;5067959;28;20429;-68
2024/04/07 10:31:25;;;;;;;2.00;0.80;;;20.20;95.70;;;;;;5034973;28;20487;-69
2024/04/07 10:33:52;;;;;;;1.80;1.00;;;20.20;95.20;;;;;;5038291;28;20430;-69
2024/04/07 10:36:20;;;;;;;3.57;0.97;;;20.30;95.00;;;;;;5037148;28;20813;-68
2024/04/07 10:38:56;;;;;;;1.13;0.73;;;20.20;95.20;;;;;;5035896;28;20446;-70
2024/04/07 10:41:29;;;;;;;2.10;0.93;;;20.20;95.30;;;;;;5036515;28;20481;-70
2024/04/07 10:43:55;;;;;;;1.33;0.63;;;20.20;95.00;;;;;;5068484;28;20581;-67
2024/04/07 10:46:22;;;;;;;1.60;0.90;;;20.20;94.90;;;;;;5036749;28;20488;-68
2024/04/07 10:48:50;;;;;;;1.17;0.93;;;20.20;94.80;;;;;;5036117;28;20425;-68
2024/04/07 10:51:16;;;;;;;2.67;1.23;;;20.10;95.10;;;;;;5037427;28;20541;-68
2024/04/07 10:53:55;;;;;;;2.23;0.73;;;20.10;95.60;;;;;;5037621;28;20985;-70
2024/04/07 10:56:21;;;;;;;2.40;1.47;;;20.10;95.00;;;;;;5067408;28;20428;-70
2024/04/07 10:58:47;;;;;;;1.97;0.70;;;20.10;95.20;;;;;;5067404;28;20444;-67
2024/04/07 11:01:13;;;;;;;1.90;1.10;;;20.10;95.30;;;;;;5035551;28;20277;-68
2024/04/07 11:03:39;;;;;;;1.43;0.90;;;20.20;95.80;;;;;;5035557;28;20268;-72
2024/04/07 11:06:05;;;;;;;2.57;1.30;;;20.20;95.30;;;;;;5035728;28;20449;-69
2024/04/07 11:08:32;;;;;;;3.00;1.27;;;20.30;95.90;;;;;;5036399;28;20224;-70
2024/04/07 11:10:57;;;;;;;3.10;1.00;;;20.40;95.60;;;;;;5035799;28;20511;-67
2024/04/07 11:13:23;;;;;;;2.50;1.13;;;20.50;96.20;;;;;;5041459;28;20436;-68
2024/04/07 11:15:53;;;;;;;3.30;1.33;;;20.40;96.30;;;;;;5036754;28;20440;-70
2024/04/07 11:18:20;;;;;;;5.03;1.27;;;20.60;96.60;;;;;;5036963;28;20244;-68
2024/04/07 11:20:46;;;;;;;2.60;1.17;;;20.70;97.30;;;;;;5040748;28;20468;-67
2024/04/07 11:23:13;;;;;;;3.80;1.13;;;20.80;96.70;;;;;;5038362;28;20571;-70
2024/04/07 11:25:42;;;;;;;2.07;1.07;;;21.00;96.60;;;;;;5039023;28;20432;-68
2024/04/07 11:28:09;;;;;;;1.77;1.00;;;21.20;95.90;;;;;;5038733;28;20432;-69
2024/04/07 11:30:39;;;;;;;3.33;1.00;;;21.30;95.90;;;;;;5038086;28;20547;-71
2024/04/07 11:33:06;;;;;;;3.40;1.13;;;21.30;95.50;;;;;;5039243;28;20425;-70
2024/04/07 11:35:33;;;;;;;4.40;1.77;;;21.40;95.40;;;;;;5037995;28;20506;-69
2024/04/07 11:37:59;;;;;;;2.77;1.07;;;21.60;96.20;;;;;;5037762;28;20449;-69
2024/04/07 11:40:26;;;;;;;2.20;1.00;;;21.80;94.10;;;;;;5039613;28;20420;-67
2024/04/07 11:42:52;;;;;;;1.93;0.93;;;21.90;92.50;;;;;;5036993;28;20479;-68
2024/04/07 11:45:18;;;;;;;2.07;1.27;;;22.10;92.10;;;;;;5037616;28;20428;-67
2024/04/07 11:47:44;;;;;;;2.00;0.93;;;22.10;91.80;;;;;;5038984;28;20437;-68
2024/04/07 11:50:10;;;;;;;2.03;0.83;;;22.10;91.50;;;;;;5038550;28;20435;-69
2024/04/07 11:52:39;;;;;;;2.60;0.90;;;22.10;91.30;;;;;;5038972;28;20182;-69
2024/04/07 11:55:05;;;;;;;1.30;0.77;;;22.10;92.20;;;;;;5036822;28;20193;-70
2024/04/07 11:57:32;;;;;;;2.70;1.23;;;22.30;92.30;;;;;;5036931;28;20446;-70
2024/04/07 11:59:59;;;;;;;1.03;0.83;;;22.30;91.40;;;;;;5036648;28;21767;-68
2024/04/07 12:02:25;;;;;;;2.53;0.90;;;22.20;89.90;;;;;;5037231;28;20432;-66
2024/04/07 12:04:51;;;;;;;2.40;0.90;;;22.20;90.90;;;;;;5037402;28;20437;-67
2024/04/07 12:07:17;;;;;;;1.90;0.87;;;22.30;90.50;;;;;;5034307;28;20493;-67
2024/04/07 12:09:43;;;;;;;2.47;1.30;;;22.20;89.20;;;;;;5037852;28;20767;-67
2024/04/07 12:12:12;;;;;;;3.10;0.93;;;22.10;90.30;;;;;;5036472;28;20192;-69
2024/04/07 12:14:38;;;;;;;2.80;1.33;;;22.00;89.40;;;;;;5034060;28;20197;-69
2024/04/07 12:17:05;;;;;;;1.80;1.23;;;21.80;89.30;;;;;;5036990;28;20431;-67
2024/04/07 12:19:31;;;;;;;2.80;1.20;;;21.80;89.90;;;;;;5034079;28;20523;-69
2024/04/07 12:21:58;;;;;;;2.93;0.80;;;21.80;90.40;;;;;;5036583;28;20436;-68
2024/04/07 12:24:23;;;;;;;2.30;0.90;;;21.70;90.10;;;;;;5036202;28;20503;-68
2024/04/07 12:26:52;;;;;;;1.87;0.97;;;21.70;89.90;;;;;;5037319;28;20445;-70
2024/04/07 12:29:19;;;;;;;1.80;0.73;;;21.80;90.20;;;;;;5035166;28;20246;-68
2024/04/07 12:31:48;;;;;;;4.67;0.83;;;21.80;88.80;;;;;;5036803;28;20430;-70
2024/04/07 12:34:14;;;;;;;2.30;0.97;;;21.70;87.90;;;;;;5037382;28;20425;-67
2024/04/07 12:36:40;;;;;;;2.33;0.90;;;21.80;90.20;;;;;;5037419;28;20481;-71
2024/04/07 12:39:08;;;;;;;3.10;0.80;;;21.90;88.10;;;;;;5036287;28;20243;-69
2024/04/07 12:41:35;;;;;;;2.70;0.87;;;22.00;89.10;;;;;;5035916;28;20209;-68
2024/04/07 12:44:01;;;;;;;3.60;1.00;;;22.20;87.10;;;;;;5034471;28;20473;-70
2024/04/07 12:46:27;;;;;;;0.80;0.73;;;22.30;84.10;;;;;;5036280;28;20467;-69